Tiempo atmosférico en la estación meteorológica de Alcázar Del Rey, Cuenca (875 m.)



Fecha
DESCASC
Temp. máxima en grados centígrados (hora)
DESCASC
Temp. mínima en grados centígrados (hora)
DESCASC
Temp. media en grados centígrados
DESCASC
Racha de viento máxima en m/sg (hora)
DESCASC
Velocidad máxima media en intervalos de 10 minutos(hora)
DESCASC
Precipitaciones diarias en mm
DESCASC
Precipitaciones de 00:00 a 06:00 en mm
DESCASC
Precipitaciones de 06:00 a 12:00 en mm
DESCASC
Precipitaciones de 12:00 a 18:00 en mm
DESCASC
Precipitaciones de 18:00 a 24:00 en mm
DESCASC
06-07-2020 36 (17:40) 15.9 (06:50) 25.9 8.89 (15:50) 4.72 (15:50) 0 0 0 0 0
05-07-2020 35.3 (18:20) 15 (06:50) 25.1 9.44 (15:20) 3.89 (18:20) 0 0 0 0 0
04-07-2020 33.5 (18:10) 15.3 (05:50) 24.4 8.33 (14:10) 4.72 (01:40) 0 0 0 0 0
03-07-2020 31.5 (18:30) 14.9 (07:00) 23.2 10.28 (14:50) 4.44 (20:30) 0 0 0 0 0
02-07-2020 32.1 (16:40) 14.1 (00:00) 23.1 11.94 (17:50) 6.67 (19:10) 0 0 0 0 0
01-07-2020 34.4 (16:30) 19.5 (00:00) 27 11.67 (17:20) 5.83 (17:00) 0 0 0 0 0
30-06-2020 36.2 (17:40) 18.9 (00:00) 27.6 10 (16:00) 5.83 (20:30) 0 0 0 0 0
29-06-2020 35.3 (17:50) 18.6 (00:00) 26.9 8.61 (13:30) 4.44 (17:20) 0 0 0 0 0
28-06-2020 33.7 (18:10) 15.6 (00:00) 24.7 8.33 (15:40) 3.61 (18:40) 0 0 0 0 0
27-06-2020 31.1 (18:10) 13.5 (00:00) 22.3 8.61 (15:10) 4.44 (15:20) 0 0 0 0 0
26-06-2020 31.3 (15:50) 17.3 (00:00) 24.3 11.11 (01:30) 6.11 (19:50) 0 0 0 0 0
25-06-2020 33.8 (18:40) 17.9 (00:00) 25.8 11.11 (04:10) 6.11 (04:10) 0 0 0 0 0
24-06-2020 32.3 (19:30) 18 (00:00) 25.1 15 (05:10) 7.5 (05:10) 0.4 0.4 0 0 0
23-06-2020 35.3 (18:30) 16.3 (00:00) 25.8 10.56 (08:40) 6.11 (10:30) 0 0 0 0 0
22-06-2020 34.4 (17:30) 16.1 (00:00) 25.3 7.22 (10:40) 4.72 (09:20) 0 0 0 0 0
21-06-2020 33.1 (18:00) 12.5 (00:00) 22.8 8.33 (17:40) 4.17 (17:40) 0 0 0 0 0
20-06-2020 31.5 (17:40) 12.8 (00:00) 22.2 8.89 (15:00) 4.72 (19:10) 0 0 0 0 0
19-06-2020 29.2 (18:20) 15.5 (00:00) 22.4 9.17 (16:00) 5 (09:10) 0 0 0 0 0
18-06-2020 28.2 (17:40) 13.3 (00:00) 20.8 9.17 (16:10) 3.89 (03:50) 0 0 0 0 0
17-06-2020 25.4 (17:30) 8.6 (00:00) 17 8.61 (15:20) 4.17 (16:20) 0 0 0 0 0
16-06-2020 24.6 (16:00) 11.4 (00:00) 18 12.22 (16:30) 6.67 (16:00) 1.4 0 0 0 1.4
15-06-2020 27.3 (18:00) 9 (00:00) 18.1 9.72 (19:00) 5 (19:30) 0 0 0 0 0
14-06-2020 25.1 (18:20) 8.4 (00:00) 16.8 10.83 (14:20) 5.83 (14:20) 0 0 0 0 0
13-06-2020 22.1 (17:10) 7.7 (00:00) 14.9 8.61 (18:10) 4.72 (11:20) 0.4 0.2 0.2 0 0
12-06-2020 19.4 (15:40) 8.8 (00:00) 14.1 14.17 (00:20) 8.33 (23:30) 0.6 0 0 0 0.6
11-06-2020 24.6 (15:10) 12.5 (00:00) 18.6 13.89 (17:10) 7.78 (17:40) 0 0 0 0 0
10-06-2020 24 (16:30) 7.1 (00:00) 15.5 9.17 (17:00) 4.72 (17:00) 0 0 0 0 0
09-06-2020 21.5 (18:00) 6.5 (00:00) 14 10.28 (15:10) 4.72 (12:40) 0 0 0 0 0

Gráficas

Temp. máximas Temp. mínimas Temp. medias Precipitaciones Rachas de viento máximas Velocidades máximas media en intervalos de 10 minutos

Datos horarios

Fecha y hora oficial Temperatura (ºC) Velocidad del viento (km/h) Dirección del viento Racha (km/h) Dirección de racha Precipitación (mm) Presión (hPa) Tendencia (hPa) Humedad (%)
2020-07-08 23:00:00 24.1 17 Sudeste 36 Este 0 -- -- 40
2020-07-08 22:00:00 23.9 20 Sudeste 40 Este 0 -- -- 41
2020-07-08 21:00:00 24.6 21 Sudeste 46 Este 0 -- -- 41
2020-07-08 20:00:00 25.7 23 Sudeste 49 Sudeste 0 -- -- 41
2020-07-08 19:00:00 28.2 23 Sudeste 51 Sudeste 0 -- -- 35
2020-07-08 18:00:00 28.6 23 Sudeste 56 Sudeste 0 -- -- 35
2020-07-08 17:00:00 31.1 23 Sudeste 44 Sudeste 0 -- -- 27
2020-07-08 16:00:00 31.3 27 Sudeste 45 Sudeste 0 -- -- 32
2020-07-08 15:00:00 34.3 19 Sudeste 35 Sudeste 0 -- -- 24
2020-07-08 14:00:00 33.6 15 Sudeste 36 Este 0 -- -- 23
2020-07-08 13:00:00 33 17 Este 37 Este 0 -- -- 28
2020-07-08 12:00:00 31 22 Este 35 Este 0 -- -- 33
2020-07-08 11:00:00 27.5 13 Este 38 Nordeste 0 -- -- 40
2020-07-08 10:00:00 24.5 12 Nordeste 26 Norte 0 -- -- 48
2020-07-08 09:00:00 23.4 10 Norte 36 Este 0 -- -- 54
2020-07-08 08:00:00 21.4 17 Sudeste 35 Este 0 -- -- 62
2020-07-08 07:00:00 20.8 9 Sudeste 31 Sur 0 -- -- 64
2020-07-08 06:00:00 21.4 10 Sudeste 21 Sudeste 0 -- -- 62
2020-07-08 05:00:00 21.3 8 Sudeste 21 Sudeste 0 -- -- 63
2020-07-08 04:00:00 22 10 Sudeste 26 Sur 0 -- -- 61
2020-07-08 03:00:00 22.7 12 Sudeste 24 Sudeste 0 -- -- 59
2020-07-08 02:00:00 23.4 13 Sudeste 27 Este 0 -- -- 44
2020-07-08 01:00:00 26.2 8 Sur 10 Sur 0 -- -- 25
2020-07-08 00:00:00 27.9 3 Oeste 9 Oeste 0 -- -- 24
2020-07-07 23:00:00 28.9 4 Oeste 6 Oeste 0 -- -- 24
2020-07-07 22:00:00 31.5 2 Oeste 13 Noroeste 0 -- -- 20
2020-07-07 21:00:00 34.2 9 Oeste 32 Oeste 0 -- -- 17
2020-07-07 20:00:00 36 17 Oeste 29 Oeste 0 -- -- 17
2020-07-07 19:00:00 36.7 17 Oeste 35 Noroeste 0 -- -- 16
2020-07-07 18:00:00 37.1 21 Oeste 35 Oeste 0 -- -- 14
2020-07-07 17:00:00 36.8 13 Oeste 36 Noroeste 0 -- -- 16
2020-07-07 16:00:00 36.4 6 Oeste 35 Noroeste 0 -- -- 19
2020-07-07 15:00:00 35.4 14 Noroeste 30 Noroeste 0 -- -- 21
2020-07-07 14:00:00 34.3 13 Noroeste 24 Oeste 0 -- -- 26
2020-07-07 13:00:00 32.4 4 Noroeste 22 Noroeste 0 -- -- 29
2020-07-07 12:00:00 31.4 5 Este 15 Este 0 -- -- 31
2020-07-07 11:00:00 29.1 6 Este 17 Norte 0 -- -- 37
2020-07-07 10:00:00 26.4 9 Nordeste 18 Nordeste 0 -- -- 43
2020-07-07 09:00:00 23 13 Nordeste 20 Norte 0 -- -- 52
2020-07-07 08:00:00 20.4 15 Nordeste 21 Nordeste 0 -- -- 59
2020-07-07 07:00:00 19.2 13 Nordeste 18 Nordeste 0 -- -- 62
2020-07-07 06:00:00 19.4 8 Nordeste 13 Nordeste 0 -- -- 59
2020-07-07 05:00:00 20.3 7 Nordeste 13 Nordeste 0 -- -- 56
2020-07-07 04:00:00 20.9 8 Nordeste 14 Nordeste 0 -- -- 54
2020-07-07 03:00:00 21.5 10 Nordeste 15 Nordeste 0 -- -- 52
2020-07-07 02:00:00 22.9 9 Nordeste 16 Nordeste 0 -- -- 47
2020-07-07 01:00:00 24.3 10 Nordeste 22 Nordeste 0 -- -- 44
2020-07-07 00:00:00 24.9 10 Nordeste 17 Nordeste 0 -- -- 41
2020-07-06 23:00:00 25.8 5 Nordeste 9 Nordeste 0 -- -- 37
2020-07-06 22:00:00 28.5 7 Nordeste 12 Nordeste 0 -- -- 32
2020-07-06 21:00:00 32.4 7 Nordeste 17 Nordeste 0 -- -- 27
2020-07-06 20:00:00 34.1 10 Nordeste 21 Norte 0 -- -- 24
2020-07-06 19:00:00 35.9 13 Noroeste 26 Oeste 0 -- -- 22
2020-07-06 18:00:00 35.8 11 Noroeste 31 Oeste 0 -- -- 22
2020-07-06 17:00:00 34.8 10 Noroeste 27 Noroeste 0 -- -- 22
2020-07-06 16:00:00 34.4 13 Noroeste 32 Noroeste 0 -- -- 22
2020-07-06 15:00:00 34.3 14 Noroeste 31 Noroeste 0 -- -- 23
2020-07-06 14:00:00 33.8 12 Oeste 22 Oeste 0 -- -- 23
2020-07-06 13:00:00 32.5 6 Norte 18 Este 0 -- -- 28
2020-07-06 12:00:00 30.4 6 Nordeste 15 Norte 0 -- -- 32
2020-07-06 11:00:00 28 8 Nordeste 15 Nordeste 0 -- -- 40
2020-07-06 10:00:00 25.5 10 Nordeste 18 Nordeste 0 -- -- 43
2020-07-06 09:00:00 23.8 10 Nordeste 17 Nordeste 0 -- -- 48
2020-07-06 08:00:00 20 4 Este 14 Este 0 -- -- 58
2020-07-06 07:00:00 16.1 10 Este 13 Este 0 -- -- 70
2020-07-06 06:00:00 16.1 10 Nordeste 13 Este 0 -- -- 66
2020-07-06 05:00:00 17.5 10 Este 11 Este 0 -- -- 60
2020-07-06 04:00:00 19.1 3 Norte 12 Sudeste 0 -- -- 53
2020-07-06 03:00:00 20.5 7 Este 12 Sudeste 0 -- -- 49
2020-07-06 02:00:00 21.7 8 Este 17 Este 0 -- -- 37
2020-07-06 01:00:00 21.2 0 Calma 2 Norte 0 -- -- 31
2020-07-06 00:00:00 23.2 0 Calma 3 Sur 0 -- -- 28
2020-07-05 23:00:00 25.9 0 Calma 4 Nordeste 0 -- -- 24
2020-07-05 22:00:00 29.2 2 Nordeste 13 Noroeste 0 -- -- 22
2020-07-05 21:00:00 33 8 Noroeste 20 Oeste 0 -- -- 18
2020-07-05 20:00:00 33.9 10 Noroeste 33 Noroeste 0 -- -- 18
2020-07-05 19:00:00 34.6 4 Oeste 24 Noroeste 0 -- -- 18
2020-07-05 18:00:00 34.5 6 Este 22 Oeste 0 -- -- 18
2020-07-05 17:00:00 34.8 6 Oeste 27 Noroeste 0 -- -- 17
2020-07-05 16:00:00 33.9 9 Oeste 34 Noroeste 0 -- -- 19
2020-07-05 15:00:00 33.3 6 Norte 24 Noroeste 0 -- -- 20
2020-07-05 14:00:00 32.7 8 Sudeste 16 Sudeste 0 -- -- 25
2020-07-05 13:00:00 31.3 4 Sudoeste 17 Oeste 0 -- -- 30
2020-07-05 12:00:00 29.3 8 Este 21 Este 0 -- -- 40
2020-07-05 11:00:00 27.5 8 Sudeste 19 Este 0 -- -- 46
2020-07-05 10:00:00 24.9 12 Este 21 Este 0 -- -- 50
2020-07-05 09:00:00 22.2 8 Nordeste 12 Nordeste 0 -- -- 52
2020-07-05 08:00:00 18.4 9 Nordeste 11 Nordeste 0 -- -- 63
2020-07-05 07:00:00 15.1 6 Nordeste 10 Nordeste 0 -- -- 77
2020-07-05 06:00:00 16.3 5 Nordeste 14 Este 0 -- -- 78
2020-07-05 05:00:00 16.8 10 Nordeste 14 Norte 0 -- -- 78
2020-07-05 04:00:00 18.7 7 Este 12 Este 0 -- -- 77
2020-07-05 03:00:00 19.2 6 Nordeste 9 Este 0 -- -- 63
2020-07-05 02:00:00 20.1 4 Este 17 Este 0 -- -- 39
2020-07-05 01:00:00 19.7 3 Sudeste 10 Nordeste 0 -- -- 30
2020-07-05 00:00:00 21.6 6 Norte 11 Nordeste 0 -- -- 28
2020-07-04 23:00:00 23.2 5 Nordeste 8 Norte 0 -- -- 26
2020-07-04 22:00:00 26.5 4 Norte 12 Noroeste 0 -- -- 23
2020-07-04 21:00:00 31.5 6 Noroeste 19 Noroeste 0 -- -- 18
2020-07-04 20:00:00 32.6 10 Noroeste 19 Oeste 0 -- -- 17
2020-07-04 19:00:00 33.2 6 Oeste 28 Sur 0 -- -- 17
2020-07-04 18:00:00 33.3 5 Sur 21 Oeste 0 -- -- 17
2020-07-04 17:00:00 33.3 12 Oeste 26 Noroeste 0 -- -- 17
2020-07-04 16:00:00 32.1 8 Oeste 27 Oeste 0 -- -- 17
2020-07-04 15:00:00 31.1 9 Oeste 30 Noroeste 0 -- -- 21
2020-07-04 14:00:00 30.8 12 Oeste 26 Oeste 0 -- -- 23
2020-07-04 13:00:00 28.9 6 Oeste 17 Oeste 0 -- -- 31
2020-07-04 12:00:00 27.1 5 Norte 18 Este 0 -- -- 42
2020-07-04 11:00:00 24.7 5 Nordeste 17 Este 0 -- -- 53
2020-07-04 10:00:00 22.7 6 Este 14 Sudeste 0 -- -- 67
2020-07-04 09:00:00 19 6 Sudeste 16 Sudeste 0 -- -- 81
2020-07-04 08:00:00 17.1 9 Nordeste 14 Nordeste 0 -- -- 73
2020-07-04 07:00:00 15.6 9 Nordeste 13 Nordeste 0 -- -- 79
2020-07-04 06:00:00 15.4 8 Nordeste 13 Nordeste 0 -- -- 64
2020-07-04 05:00:00 15.9 8 Nordeste 13 Nordeste 0 -- -- 75
2020-07-04 04:00:00 16.9 6 Nordeste 9 Nordeste 0 -- -- 64
2020-07-04 03:00:00 17.5 5 Este 15 Nordeste 0 -- -- 69
2020-07-04 02:00:00 19 9 Nordeste 28 Este 0 -- -- 40
2020-07-04 01:00:00 18.1 0 Calma 8 Norte 0 -- -- 34
2020-07-04 00:00:00 20.1 3 Norte 5 Norte 0 -- -- 31
2020-07-03 23:00:00 22.6 0 Calma 5 Noroeste 0 -- -- 27
2020-07-03 22:00:00 26.1 3 Noroeste 14 Noroeste 0 -- -- 23
2020-07-03 21:00:00 29.2 8 Noroeste 27 Noroeste 0 -- -- 21
2020-07-03 20:00:00 30.7 8 Oeste 22 Noroeste 0 -- -- 21
2020-07-03 19:00:00 31.1 7 Noroeste 23 Oeste 0 -- -- 21
2020-07-03 18:00:00 30.8 6 Nordeste 27 Noroeste 0 -- -- 21
2020-07-03 17:00:00 30.2 10 Noroeste 27 Noroeste 0 -- -- 22
2020-07-03 16:00:00 30.1 13 Noroeste 25 Noroeste 0 -- -- 21
2020-07-03 15:00:00 29.3 9 Oeste 37 Oeste 0 -- -- 28
2020-07-03 14:00:00 28.9 6 Sudoeste 20 Oeste 0 -- -- 31
2020-07-03 13:00:00 27.6 8 Oeste 17 Oeste 0 -- -- 31
2020-07-03 12:00:00 25.9 5 Sudoeste 13 Sudeste 0 -- -- 47
2020-07-03 11:00:00 24.2 7 Sur 17 Sudeste 0 -- -- 54
2020-07-03 10:00:00 21.3 8 Nordeste 17 Nordeste 0 -- -- 58
2020-07-03 09:00:00 18.9 14 Nordeste 23 Nordeste 0 -- -- 63
2020-07-03 08:00:00 15.9 12 Nordeste 27 Este 0 -- -- 75
2020-07-03 07:00:00 14.9 12 Nordeste 25 Este 0 -- -- 79
2020-07-03 06:00:00 15.7 10 Norte 19 Norte 0 -- -- 75
2020-07-03 05:00:00 16.5 10 Nordeste 19 Nordeste 0 -- -- 72
2020-07-03 04:00:00 17.7 8 Norte 15 Norte 0 -- -- 67
2020-07-03 03:00:00 19 5 Nordeste 11 Nordeste 0 -- -- 51
2020-07-03 02:00:00 20 0 Calma 11 Oeste 0 -- -- 42
2020-07-03 01:00:00 21.6 6 Oeste 17 Oeste 0 -- -- 40
2020-07-03 00:00:00 22.6 9 Oeste 17 Noroeste 0 -- -- 38
2020-07-02 23:00:00 24 9 Oeste 21 Oeste 0 -- -- 34
2020-07-02 22:00:00 25.9 15 Oeste 28 Oeste 0 -- -- 29
2020-07-02 21:00:00 28.8 18 Oeste 37 Oeste 0 -- -- 24
2020-07-02 20:00:00 30.3 18 Oeste 41 Oeste 0 -- -- 20
2020-07-02 19:00:00 31.4 19 Oeste 39 Oeste 0 -- -- 18
2020-07-02 18:00:00 31.6 24 Oeste 43 Oeste 0 -- -- 20
2020-07-02 17:00:00 32.1 18 Oeste 41 Oeste 0 -- -- 21
2020-07-02 16:00:00 31.6 21 Oeste 37 Sudoeste 0 -- -- 21
2020-07-02 15:00:00 31 17 Oeste 37 Sudoeste 0 -- -- 22
2020-07-02 14:00:00 30.7 18 Oeste 37 Noroeste 0 -- -- 23
2020-07-02 13:00:00 30.1 14 Oeste 36 Noroeste 0 -- -- 22
2020-07-02 12:00:00 29.2 17 Oeste 31 Oeste 0 -- -- 29
2020-07-02 11:00:00 27.5 11 Oeste 23 Oeste 0 -- -- 34
2020-07-02 10:00:00 26.5 6 Sur 13 Sur 0 -- -- 33
2020-07-02 09:00:00 22.8 6 Sur 11 Sur 0 -- -- 37
2020-07-02 08:00:00 17.7 5 Sur 12 Sudeste 0 -- -- 45
2020-07-02 07:00:00 14.6 2 Noroeste 14 Oeste 0 -- -- 52
2020-07-02 06:00:00 16.4 3 Sur 9 Sudoeste 0 -- -- 46
2020-07-02 05:00:00 17.5 0 Calma 6 Sur 0 -- -- 44
2020-07-02 04:00:00 19.7 5 Sur 10 Sur 0 -- -- 39
2020-07-02 03:00:00 20 0 Calma 7 Sudeste 0 -- -- 36
2020-07-02 02:00:00 22 6 Sur 8 Sur 0 -- -- 32
2020-07-02 01:00:00 23.6 4 Oeste 6 Oeste 0 -- -- 29
2020-07-02 00:00:00 25 4 Oeste 9 Oeste 0 -- -- 26
2020-07-01 23:00:00 26 5 Oeste 15 Noroeste 0 -- -- 24
2020-07-01 22:00:00 27.6 8 Oeste 24 Oeste 0 -- -- 22
2020-07-01 21:00:00 31.3 12 Oeste 36 Oeste 0 -- -- 19
2020-07-01 20:00:00 32.9 17 Oeste 39 Oeste 0 -- -- 18
2020-07-01 19:00:00 33.9 19 Oeste 37 Oeste 0 -- -- 18
2020-07-01 18:00:00 34.2 19 Oeste 42 Oeste 0 -- -- 20
2020-07-01 17:00:00 34 21 Oeste 37 Sudoeste 0 -- -- 20
2020-07-01 16:00:00 34 17 Oeste 41 Oeste 0 -- -- 20
2020-07-01 15:00:00 33 19 Oeste 36 Oeste 0 -- -- 20
2020-07-01 14:00:00 32 12 Sudoeste 32 Sudoeste 0 -- -- 22
2020-07-01 13:00:00 30.8 13 Sudoeste 31 Oeste 0 -- -- 28
2020-07-01 12:00:00 29.7 13 Sudoeste 33 Oeste 0 -- -- 30
2020-07-01 11:00:00 28.3 11 Oeste 26 Sudoeste 0 -- -- 30
2020-07-01 10:00:00 26.5 10 Sudoeste 21 Sudoeste 0 -- -- 32
2020-07-01 09:00:00 24.1 6 Sur 13 Sur 0 -- -- 42
2020-07-01 08:00:00 21.3 7 Sudeste 10 Sur 0 -- -- 50
2020-07-01 07:00:00 19.7 0 Calma 10 Oeste 0 -- -- 51
2020-07-01 06:00:00 20.1 5 Oeste 12 Oeste 0 -- -- 51
2020-07-01 05:00:00 19.9 5 Sur 8 Sur 0 -- -- 58
2020-07-01 04:00:00 20.8 8 Sur 15 Sudeste 0 -- -- 63
2020-07-01 03:00:00 21.5 9 Sudeste 22 Sudeste 0 -- -- 65
2020-07-01 02:00:00 22.7 11 Sudeste 27 Este 0 -- -- 61
2020-07-01 01:00:00 24.2 15 Sudeste 29 Este 0 -- -- 53
2020-07-01 00:00:00 26.7 12 Sudeste 23 Este 0 -- -- 37
2020-06-30 23:00:00 28.4 6 Noroeste 25 Oeste 0 -- -- 24
2020-06-30 22:00:00 31.2 13 Oeste 32 Oeste 0 -- -- 21
2020-06-30 21:00:00 33.7 20 Oeste 36 Sudoeste 0 -- -- 19
2020-06-30 20:00:00 35.5 14 Sudoeste 31 Sudoeste 0 -- -- 18
2020-06-30 19:00:00 36 10 Sur 35 Oeste 0 -- -- 19
2020-06-30 18:00:00 36 12 Sur 29 Sudoeste 0 -- -- 19
2020-06-30 17:00:00 35.6 17 Sudoeste 34 Sur 0 -- -- 21
2020-06-30 16:00:00 35.4 13 Sur 36 Sur 0 -- -- 22
2020-06-30 15:00:00 34.7 13 Sudoeste 26 Sudoeste 0 -- -- 22
2020-06-30 14:00:00 34.1 12 Sudeste 28 Sudeste 0 -- -- 25
2020-06-30 13:00:00 32.5 13 Sur 25 Sur 0 -- -- 28
2020-06-30 12:00:00 30.7 12 Sudeste 21 Sudeste 0 -- -- 32
2020-06-30 11:00:00 28 12 Sudeste 23 Sudeste 0 -- -- 37
2020-06-30 10:00:00 25.8 13 Sudeste 26 Sudeste 0 -- -- 41
2020-06-30 09:00:00 23.4 12 Sudeste 23 Sudeste 0 -- -- 46
2020-06-30 08:00:00 20.7 7 Sudeste 23 Sudeste 0 -- -- 53
2020-06-30 07:00:00 18.9 9 Sudeste 25 Sudeste 0 -- -- 59
2020-06-30 06:00:00 20 11 Sudeste 29 Sudeste 0 -- -- 56
2020-06-30 05:00:00 20.5 11 Sudeste 24 Este 0 -- -- 56
2020-06-30 04:00:00 21.6 13 Sudeste 26 Sudeste 0 -- -- 54
2020-06-30 03:00:00 22.7 12 Sudeste 27 Sudeste 0 -- -- 52
2020-06-30 02:00:00 23.5 12 Sudeste 24 Este 0 -- -- 49
2020-06-30 01:00:00 24.9 11 Sudeste 27 Este 0 -- -- 45
2020-06-30 00:00:00 24.1 3 Nordeste 10 Norte 0 -- -- 35
2020-06-29 23:00:00 26.7 0 Calma 6 Norte 0 -- -- 30
2020-06-29 22:00:00 30 4 Norte 11 Norte 0 -- -- 28
2020-06-29 21:00:00 33.6 3 Norte 16 Noroeste 0 -- -- 24
2020-06-29 20:00:00 34.3 5 Norte 15 Sudoeste 0 -- -- 24
2020-06-29 19:00:00 34.3 3 Noroeste 22 Sudoeste 0 -- -- 23
2020-06-29 18:00:00 35.1 9 Oeste 27 Sudoeste 0 -- -- 22
2020-06-29 17:00:00 34.8 10 Oeste 31 Oeste 0 -- -- 22
2020-06-29 16:00:00 34.6 10 Sudoeste 28 Oeste 0 -- -- 24
2020-06-29 15:00:00 33.4 10 Sudoeste 30 Oeste 0 -- -- 24
2020-06-29 14:00:00 32.9 13 Oeste 31 Oeste 0 -- -- 28
2020-06-29 13:00:00 32.3 11 Oeste 23 Oeste 0 -- -- 29
2020-06-29 12:00:00 30.9 9 Sudoeste 19 Oeste 0 -- -- 32
2020-06-29 11:00:00 28.6 6 Sur 13 Sur 0 -- -- 40
2020-06-29 10:00:00 26.6 4 Sudeste 8 Sur 0 -- -- 44
2020-06-29 09:00:00 23.5 2 Oeste 6 Sudeste 0 -- -- 55
2020-06-29 08:00:00 20.7 0 Calma 7 Sur 0 -- -- 62
2020-06-29 07:00:00 18.6 2 Sur 11 Sudeste 0 -- -- 68
2020-06-29 06:00:00 19.8 7 Sur 24 Sudeste 0 -- -- 65
2020-06-29 05:00:00 20.1 8 Sur 19 Sudeste 0 -- -- 63
2020-06-29 04:00:00 20.6 8 Sur 14 Sudeste 0 -- -- 57
2020-06-29 03:00:00 21.2 10 Sudeste 23 Sudeste 0 -- -- 44
2020-06-29 02:00:00 19.8 0 Calma 2 Sudeste 0 -- -- 45
2020-06-29 01:00:00 21.6 0 Calma 2 Oeste 0 -- -- 41
2020-06-29 00:00:00 23.3 0 Calma 2 Este 0 -- -- 37
2020-06-28 23:00:00 25.4 0 Calma 6 Norte 0 -- -- 33
2020-06-28 22:00:00 28.2 2 Norte 12 Noroeste 0 -- -- 31
2020-06-28 21:00:00 31.8 6 Noroeste 17 Noroeste 0 -- -- 26
2020-06-28 20:00:00 33.1 7 Oeste 22 Oeste 0 -- -- 24
2020-06-28 19:00:00 33.2 9 Oeste 24 Oeste 0 -- -- 23
2020-06-28 18:00:00 33.5 7 Sudoeste 26 Sudoeste 0 -- -- 22
2020-06-28 17:00:00 33.1 11 Sudoeste 24 Oeste 0 -- -- 24
2020-06-28 16:00:00 32.8 10 Oeste 30 Noroeste 0 -- -- 25
2020-06-28 15:00:00 31.6 10 Oeste 28 Oeste 0 -- -- 28
2020-06-28 14:00:00 31 9 Oeste 23 Sudoeste 0 -- -- 28
2020-06-28 13:00:00 30.1 6 Oeste 21 Sudoeste 0 -- -- 31
2020-06-28 12:00:00 29.1 9 Sudoeste 16 Oeste 0 -- -- 34
2020-06-28 11:00:00 27 6 Sur 13 Sudeste 0 -- -- 40
2020-06-28 10:00:00 24.8 4 Sudeste 11 Sudeste 0 -- -- 44
2020-06-28 09:00:00 22.7 6 Sudeste 10 Sudeste 0 -- -- 48
2020-06-28 08:00:00 18.9 0 Calma 3 Este 0 -- -- 55
2020-06-28 07:00:00 15.7 0 Calma 7 Este 0 -- -- 65
2020-06-28 06:00:00 16.3 4 Sudeste 16 Sudeste 0 -- -- 61
2020-06-28 05:00:00 18.5 9 Sudeste 18 Este 0 -- -- 52
2020-06-28 04:00:00 17 2 Este 8 Norte 0 -- -- 56
2020-06-28 03:00:00 19.8 2 Sur 5 Sur 0 -- -- 49
2020-06-28 02:00:00 20.1 3 Sudeste 4 Sudeste 0 -- -- 48
2020-06-28 01:00:00 20.8 3 Sur 5 Sur 0 -- -- 44
2020-06-28 00:00:00 22.1 0 Calma 3 Oeste 0 -- -- 40
2020-06-27 23:00:00 23.7 0 Calma 6 Noroeste 0 -- -- 36
2020-06-27 22:00:00 26.4 4 Noroeste 14 Oeste 0 -- -- 32
2020-06-27 21:00:00 29.3 10 Oeste 22 Noroeste 0 -- -- 28
2020-06-27 20:00:00 30.5 12 Oeste 29 Noroeste 0 -- -- 27
2020-06-27 19:00:00 31 11 Oeste 26 Oeste 0 -- -- 26
2020-06-27 18:00:00 30.8 12 Oeste 27 Noroeste 0 -- -- 27
2020-06-27 17:00:00 31 13 Oeste 28 Oeste 0 -- -- 27
2020-06-27 16:00:00 30.1 14 Oeste 31 Noroeste 0 -- -- 28
2020-06-27 15:00:00 29.3 7 Sudoeste 27 Oeste 0 -- -- 30
2020-06-27 14:00:00 28.6 11 Oeste 28 Noroeste 0 -- -- 30
2020-06-27 13:00:00 27.2 10 Oeste 21 Noroeste 0 -- -- 33
2020-06-27 12:00:00 26.5 8 Sudoeste 22 Oeste 0 -- -- 33
2020-06-27 11:00:00 24.9 3 Sur 9 Oeste 0 -- -- 31
2020-06-27 10:00:00 21.5 4 Norte 8 Noroeste 0 -- -- 36
2020-06-27 09:00:00 16.5 0 Calma 3 Nordeste 0 -- -- 46
2020-06-27 08:00:00 15 0 Calma 3 Sudeste 0 -- -- 47
2020-06-27 07:00:00 13.5 3 Este 6 Sudeste 0 -- -- 50
2020-06-27 06:00:00 15.1 3 Sur 8 Sur 0 -- -- 45
2020-06-27 05:00:00 15.7 5 Sur 8 Sur 0 -- -- 43
2020-06-27 04:00:00 17.3 2 Sudoeste 5 Sudoeste 0 -- -- 40
2020-06-27 03:00:00 17.9 4 Oeste 9 Oeste 0 -- -- 38
2020-06-27 02:00:00 18.9 7 Oeste 15 Noroeste 0 -- -- 35
2020-06-27 01:00:00 19.8 3 Oeste 10 Oeste 0 -- -- 36
2020-06-27 00:00:00 21.3 6 Oeste 10 Oeste 0 -- -- 34
2020-06-26 23:00:00 23 5 Oeste 15 Oeste 0 -- -- 32
2020-06-26 22:00:00 24.4 8 Oeste 24 Oeste 0 -- -- 30
2020-06-26 21:00:00 26.4 17 Oeste 35 Oeste 0 -- -- 26
2020-06-26 20:00:00 29 21 Oeste 39 Oeste 0 -- -- 25
2020-06-26 19:00:00 30.7 16 Sudoeste 33 Oeste 0 -- -- 21
2020-06-26 18:00:00 31 18 Oeste 36 Oeste 0 -- -- 25
2020-06-26 17:00:00 30.4 17 Sudoeste 35 Oeste 0 -- -- 29
2020-06-26 16:00:00 30.4 15 Sudoeste 33 Oeste 0 -- -- 27
2020-06-26 15:00:00 30.7 13 Sudoeste 33 Sudoeste 0 -- -- 27
2020-06-26 14:00:00 29.1 12 Sudoeste 27 Sudoeste 0 -- -- 32
2020-06-26 13:00:00 29.1 10 Sur 25 Sur 0 -- -- 34
2020-06-26 12:00:00 27.5 9 Sur 21 Sudeste 0 -- -- 38
2020-06-26 11:00:00 25.9 9 Sur 21 Sudeste 0 -- -- 41
2020-06-26 10:00:00 23.5 12 Sudeste 23 Sudeste 0 -- -- 46
2020-06-26 09:00:00 21.2 12 Sudeste 23 Sudeste 0 -- -- 50
2020-06-26 08:00:00 18.5 6 Sur 23 Este 0 -- -- 56
2020-06-26 07:00:00 17.4 9 Sudeste 24 Sudeste 0 -- -- 58
2020-06-26 06:00:00 18.1 12 Sudeste 30 Sudeste 0 -- -- 56
2020-06-26 05:00:00 18.9 16 Sudeste 39 Este 0 -- -- 53
2020-06-26 04:00:00 19.3 17 Sudeste 36 Sudeste 0 -- -- 52
2020-06-26 03:00:00 20.2 21 Sudeste 39 Sudeste 0 -- -- 50
2020-06-26 02:00:00 20.8 17 Sudeste 40 Sudeste 0 -- -- 48
2020-06-26 01:00:00 22.2 20 Sudeste 37 Sudeste 0 -- -- 46
2020-06-26 00:00:00 24.3 17 Sudeste 30 Sudeste 0 -- -- 42
2020-06-25 23:00:00 26.3 8 Sudeste 34 Sudeste 0 -- -- 31
2020-06-25 22:00:00 28.1 17 Sur 28 Sudeste 0 -- -- 27
2020-06-25 21:00:00 30.9 17 Sur 27 Sur 0 -- -- 24
2020-06-25 20:00:00 32.6 15 Sur 31 Sur 0 -- -- 22
2020-06-25 19:00:00 33.2 13 Sur 31 Sur 0 -- -- 22
2020-06-25 18:00:00 33.4 14 Sur 34 Sur 0 -- -- 20
2020-06-25 17:00:00 33.6 17 Sur 37 Sur 0 -- -- 21
2020-06-25 16:00:00 33 16 Sur 39 Sudeste 0 -- -- 22
2020-06-25 15:00:00 32.9 14 Sur 28 Sur 0 -- -- 23
2020-06-25 14:00:00 32.1 14 Sur 30 Sur 0 -- -- 24
2020-06-25 13:00:00 31.2 13 Sur 27 Sudeste 0 -- -- 26
2020-06-25 12:00:00 29.5 14 Sur 31 Este 0 -- -- 30
2020-06-25 11:00:00 27.1 15 Sudeste 35 Sudeste 0 -- -- 36
2020-06-25 10:00:00 24.4 16 Sudeste 32 Sudeste 0 -- -- 39
2020-06-25 09:00:00 21.4 11 Sudeste 21 Sudeste 0 -- -- 50
2020-06-25 08:00:00 19.2 13 Sudeste 36 Sudeste 0 -- -- 58
2020-06-25 07:00:00 18 19 Sudeste 37 Sudeste 0 -- -- 63
2020-06-25 06:00:00 18.3 16 Sudeste 32 Este 0 -- -- 65
2020-06-25 05:00:00 18.8 13 Sudeste 40 Sudeste 0 -- -- 63
2020-06-25 04:00:00 19.4 18 Sudeste 36 Este 0 -- -- 59
2020-06-25 03:00:00 20.2 19 Sudeste 37 Sudeste 0 -- -- 62
2020-06-25 02:00:00 21 18 Sudeste 37 Sudeste 0 -- -- 59
2020-06-25 01:00:00 22.2 14 Sudeste 26 Sudeste 0 -- -- 50
2020-06-25 00:00:00 21.8 13 Este 24 Este 0 -- -- 47
2020-06-24 23:00:00 23 15 Este 26 Sudeste 0 -- -- 43
2020-06-24 22:00:00 26.4 9 Sudeste 23 Sudeste 0 -- -- 34
2020-06-24 21:00:00 29.5 15 Sudeste 27 Sudeste 0 -- -- 28
2020-06-24 20:00:00 31.7 5 Este 10 Noroeste 0 -- -- 23
2020-06-24 19:00:00 31.7 6 Sudeste 21 Este 0 -- -- 23
2020-06-24 18:00:00 31.5 13 Nordeste 22 Nordeste 0 -- -- 26
2020-06-24 17:00:00 30.1 13 Este 32 Este 0 -- -- 28
2020-06-24 16:00:00 29.2 17 Este 26 Nordeste 0 -- -- 31
2020-06-24 15:00:00 27 19 Este 29 Este 0 -- -- 39
2020-06-24 14:00:00 25.7 14 Nordeste 24 Nordeste 0 -- -- 43
2020-06-24 13:00:00 26.5 19 Nordeste 27 Nordeste 0 -- -- 42
2020-06-24 12:00:00 24.8 3 Norte 10 Sudeste 0 -- -- 45
2020-06-24 11:00:00 25 4 Sudeste 16 Sur 0 -- -- 43
2020-06-24 10:00:00 24.2 9 Nordeste 15 Este 0 -- -- 47
2020-06-24 09:00:00 20.2 10 Nordeste 17 Sudeste 0 -- -- 59
2020-06-24 08:00:00 18.4 4 Oeste 26 Este 0 -- -- 66
2020-06-24 07:00:00 18.2 6 Sudeste 33 Sudeste 0 -- -- 70
2020-06-24 06:00:00 19.5 21 Sudeste 54 Sudeste 0 -- -- 67
2020-06-24 05:00:00 19.6 24 Sudeste 46 Sudeste 0 -- -- 65
2020-06-24 04:00:00 19.2 8 Norte 29 Sudeste 0.4 -- -- 69
2020-06-24 03:00:00 20.7 18 Sudeste 41 Sudeste 0 -- -- 61
2020-06-24 02:00:00 21.8 19 Sudeste 40 Sudeste 0 -- -- 59
2020-06-24 01:00:00 22.8 16 Sudeste 35 Este 0 -- -- 54
2020-06-24 00:00:00 24.7 15 Sudeste 30 Sudeste 0 -- -- 37
2020-06-23 23:00:00 26.4 14 Sudeste 29 Sudeste 0 -- -- 34
2020-06-23 22:00:00 28.5 9 Sudeste 20 Sudeste 0 -- -- 27
2020-06-23 21:00:00 31.6 14 Sudeste 25 Sudeste 0 -- -- 24
2020-06-23 20:00:00 33.4 11 Sudeste 23 Sudeste 0 -- -- 21
2020-06-23 19:00:00 34.7 9 Sudeste 26 Sur 0 -- -- 20
2020-06-23 18:00:00 34.7 8 Sudeste 27 Sudeste 0 -- -- 21
2020-06-23 17:00:00 34.4 7 Sur 19 Sur 0 -- -- 21
2020-06-23 16:00:00 34 6 Oeste 33 Sudeste 0 -- -- 22
2020-06-23 15:00:00 33.3 12 Sudeste 26 Sur 0 -- -- 25
2020-06-23 14:00:00 31.7 13 Sur 30 Este 0 -- -- 26
2020-06-23 13:00:00 29.8 16 Sudeste 28 Sudeste 0 -- -- 30
2020-06-23 12:00:00 27.9 16 Sudeste 34 Sudeste 0 -- -- 34
2020-06-23 11:00:00 25.7 21 Sudeste 35 Sudeste 0 -- -- 39
2020-06-23 10:00:00 23.4 19 Sudeste 36 Sudeste 0 -- -- 44
2020-06-23 09:00:00 21.4 16 Sudeste 38 Sudeste 0 -- -- 50
2020-06-23 08:00:00 19.2 4 Sudeste 18 Este 0 -- -- 58
2020-06-23 07:00:00 16.6 7 Este 13 Este 0 -- -- 67
2020-06-23 06:00:00 17.6 7 Este 14 Este 0 -- -- 64
2020-06-23 05:00:00 18.6 2 Norte 10 Sudeste 0 -- -- 63
2020-06-23 04:00:00 19.6 6 Sudeste 31 Sudeste 0 -- -- 61
2020-06-23 03:00:00 20.3 15 Sudeste 32 Este 0 -- -- 60
2020-06-23 02:00:00 21.6 15 Sudeste 35 Sudeste 0 -- -- 50
2020-06-23 01:00:00 22.3 16 Sudeste 35 Sudeste 0 -- -- 46
2020-06-23 00:00:00 24.4 15 Sudeste 26 Sudeste 0 -- -- 41
2020-06-22 23:00:00 24.7 5 Sur 13 Sur 0 -- -- 34
2020-06-22 22:00:00 26.7 7 Nordeste 10 Este 0 -- -- 31
2020-06-22 21:00:00 32.5 4 Norte 10 Norte 0 -- -- 24
2020-06-22 20:00:00 32.3 3 Nordeste 10 Norte 0 -- -- 22
2020-06-22 19:00:00 32.4 6 Noroeste 17 Sur 0 -- -- 22
2020-06-22 18:00:00 34.4 6 Sudoeste 22 Noroeste 0 -- -- 20
2020-06-22 17:00:00 33.6 12 Noroeste 22 Noroeste 0 -- -- 20
2020-06-22 16:00:00 33.1 9 Sur 23 Oeste 0 -- -- 22
2020-06-22 15:00:00 32.4 5 Sudoeste 21 Nordeste 0 -- -- 24
2020-06-22 14:00:00 31.4 5 Nordeste 21 Este 0 -- -- 26
2020-06-22 13:00:00 30.4 9 Sudeste 22 Sudeste 0 -- -- 29
2020-06-22 12:00:00 29.2 10 Este 26 Sudeste 0 -- -- 32
2020-06-22 11:00:00 27.3 10 Sudeste 26 Este 0 -- -- 35
2020-06-22 10:00:00 23.8 13 Nordeste 23 Nordeste 0 -- -- 43
2020-06-22 09:00:00 20.4 15 Nordeste 23 Nordeste 0 -- -- 53
2020-06-22 08:00:00 17.5 12 Nordeste 19 Nordeste 0 -- -- 62
2020-06-22 07:00:00 16.1 13 Nordeste 22 Nordeste 0 -- -- 65
2020-06-22 06:00:00 16.3 12 Nordeste 20 Nordeste 0 -- -- 64
2020-06-22 05:00:00 16.9 13 Nordeste 19 Nordeste 0 -- -- 60
2020-06-22 04:00:00 18 14 Nordeste 19 Nordeste 0 -- -- 55
2020-06-22 03:00:00 18.4 12 Nordeste 21 Nordeste 0 -- -- 53
2020-06-22 02:00:00 20.3 13 Nordeste 26 Nordeste 0 -- -- 47
2020-06-22 01:00:00 20.7 8 Nordeste 15 Nordeste 0 -- -- 41
2020-06-22 00:00:00 20.7 9 Nordeste 14 Norte 0 -- -- 34
2020-06-21 23:00:00 23.5 0 Calma 5 Nordeste 0 -- -- 29
2020-06-21 22:00:00 26.4 3 Nordeste 9 Noroeste 0 -- -- 26
2020-06-21 21:00:00 30.7 7 Noroeste 20 Noroeste 0 -- -- 20
2020-06-21 20:00:00 32 9 Noroeste 23 Noroeste 0 -- -- 18
2020-06-21 19:00:00 32.6 15 Noroeste 27 Oeste 0 -- -- 18
2020-06-21 18:00:00 33.1 10 Oeste 30 Noroeste 0 -- -- 16
2020-06-21 17:00:00 32.2 12 Noroeste 30 Oeste 0 -- -- 19
2020-06-21 16:00:00 32 6 Sur 27 Oeste 0 -- -- 19
2020-06-21 15:00:00 31.6 12 Oeste 27 Noroeste 0 -- -- 20
2020-06-21 14:00:00 31.1 10 Oeste 28 Oeste 0 -- -- 21
2020-06-21 13:00:00 30.1 8 Noroeste 24 Este 0 -- -- 25
2020-06-21 12:00:00 28.9 5 Noroeste 17 Este 0 -- -- 29
2020-06-21 11:00:00 26.7 9 Nordeste 20 Nordeste 0 -- -- 34
2020-06-21 10:00:00 23.9 11 Nordeste 20 Nordeste 0 -- -- 38
2020-06-21 09:00:00 21.2 9 Nordeste 15 Nordeste 0 -- -- 42
2020-06-21 08:00:00 16.6 3 Nordeste 4 Nordeste 0 -- -- 48
2020-06-21 07:00:00 12.6 3 Noroeste 5 Oeste 0 -- -- 54
2020-06-21 06:00:00 12.9 0 Calma 5 Norte 0 -- -- 53
2020-06-21 05:00:00 15.1 0 Calma 5 Noroeste 0 -- -- 48
2020-06-21 04:00:00 16 0 Calma 5 Nordeste 0 -- -- 44
2020-06-21 03:00:00 18.3 5 Sur 9 Sur 0 -- -- 38
2020-06-21 02:00:00 18.7 6 Sur 9 Sur 0 -- -- 35
2020-06-21 01:00:00 19.3 4 Oeste 6 Oeste 0 -- -- 34
2020-06-21 00:00:00 20.2 0 Calma 3 Sudoeste 0 -- -- 35
2020-06-20 23:00:00 22.4 0 Calma 6 Noroeste 0 -- -- 30
2020-06-20 22:00:00 25.6 5 Noroeste 19 Oeste 0 -- -- 25
2020-06-20 21:00:00 28.9 10 Noroeste 24 Noroeste 0 -- -- 22
2020-06-20 20:00:00 30.3 12 Oeste 26 Noroeste 0 -- -- 20
2020-06-20 19:00:00 30.7 11 Noroeste 29 Oeste 0 -- -- 20
2020-06-20 18:00:00 31.4 9 Noroeste 31 Oeste 0 -- -- 20
2020-06-20 17:00:00 30.9 11 Oeste 28 Noroeste 0 -- -- 20
2020-06-20 16:00:00 30.4 14 Oeste 32 Oeste 0 -- -- 21
2020-06-20 15:00:00 29.9 12 Oeste 32 Oeste 0 -- -- 22
2020-06-20 14:00:00 29 9 Sur 28 Sudoeste 0 -- -- 24
2020-06-20 13:00:00 27.6 11 Oeste 27 Oeste 0 -- -- 26
2020-06-20 12:00:00 26.6 9 Sudoeste 22 Sudoeste 0 -- -- 27
2020-06-20 11:00:00 24.5 4 Sur 13 Sur 0 -- -- 36
2020-06-20 10:00:00 21.2 5 Sudoeste 11 Sur 0 -- -- 50
2020-06-20 09:00:00 17.5 5 Sudeste 12 Sudeste 0 -- -- 78
2020-06-20 08:00:00 13.7 4 Sur 13 Este 0 -- -- 95
2020-06-20 07:00:00 12.9 0 Calma 12 Sur 0 -- -- 78
2020-06-20 06:00:00 14.3 6 Sudeste 17 Sudeste 0 -- -- 85
2020-06-20 05:00:00 14.9 6 Sudeste 17 Este 0 -- -- 83
2020-06-20 04:00:00 15.6 7 Sudeste 17 Sudeste 0 -- -- 72
2020-06-20 03:00:00 16.6 4 Sudeste 10 Sudeste 0 -- -- 44
2020-06-20 02:00:00 16.6 3 Sur 4 Sur 0 -- -- 42
2020-06-20 01:00:00 18.1 2 Sudoeste 4 Oeste 0 -- -- 38
2020-06-20 00:00:00 18.9 2 Sur 4 Sur 0 -- -- 35
2020-06-19 23:00:00 21 2 Sur 7 Oeste 0 -- -- 32
2020-06-19 22:00:00 24 2 Oeste 19 Oeste 0 -- -- 27
2020-06-19 21:00:00 27 9 Oeste 25 Sudoeste 0 -- -- 25
2020-06-19 20:00:00 27.7 9 Oeste 28 Oeste 0 -- -- 27
2020-06-19 19:00:00 29 13 Oeste 31 Oeste 0 -- -- 25
2020-06-19 18:00:00 28.4 10 Oeste 28 Oeste 0 -- -- 26
2020-06-19 17:00:00 28.3 14 Sudoeste 32 Oeste 0 -- -- 27
2020-06-19 16:00:00 28.2 17 Oeste 33 Oeste 0 -- -- 25
2020-06-19 15:00:00 27.5 12 Oeste 28 Oeste 0 -- -- 29
2020-06-19 14:00:00 27 9 Sudoeste 26 Oeste 0 -- -- 32
2020-06-19 13:00:00 25 6 Oeste 22 Oeste 0 -- -- 36
2020-06-19 12:00:00 24.2 8 Sudeste 25 Sur 0 -- -- 46
2020-06-19 11:00:00 22.5 12 Sur 28 Sudeste 0 -- -- 53
2020-06-19 10:00:00 20.3 16 Sudeste 32 Sudeste 0 -- -- 64
2020-06-19 09:00:00 18.5 17 Sudeste 31 Sudeste 0 -- -- 73
2020-06-19 08:00:00 16.7 15 Sudeste 30 Sudeste 0 -- -- 81
2020-06-19 07:00:00 16 14 Sudeste 29 Sudeste 0 -- -- 86
2020-06-19 06:00:00 15.7 15 Sudeste 27 Sudeste 0 -- -- 87
2020-06-19 05:00:00 15.5 12 Sudeste 22 Sudeste 0 -- -- 87
2020-06-19 04:00:00 15.6 10 Sudeste 21 Sudeste 0 -- -- 86
2020-06-19 03:00:00 16.1 12 Sudeste 26 Sudeste 0 -- -- 84
2020-06-19 02:00:00 17 11 Sudeste 28 Sudeste 0 -- -- 80
2020-06-19 01:00:00 17.4 16 Sudeste 33 Este 0 -- -- 62
2020-06-19 00:00:00 18.9 0 Calma 6 Sur 0 -- -- 42
2020-06-18 23:00:00 20.5 0 Calma 8 Oeste 0 -- -- 38
2020-06-18 22:00:00 22.8 3 Oeste 8 Oeste 0 -- -- 34
2020-06-18 21:00:00 25.2 3 Oeste 7 Noroeste 0 -- -- 31
2020-06-18 20:00:00 25.2 0 Calma 17 Oeste 0 -- -- 30
2020-06-18 19:00:00 27.4 9 Oeste 24 Oeste 0 -- -- 27
2020-06-18 18:00:00 28 11 Oeste 29 Sudoeste 0 -- -- 26
2020-06-18 17:00:00 27.8 11 Oeste 33 Noroeste 0 -- -- 25
2020-06-18 16:00:00 26.4 8 Sur 29 Sudoeste 0 -- -- 27
2020-06-18 15:00:00 26.3 12 Sur 31 Oeste 0 -- -- 28
2020-06-18 14:00:00 25.2 10 Sudoeste 25 Sudoeste 0 -- -- 30
2020-06-18 13:00:00 24.4 9 Sur 25 Oeste 0 -- -- 31
2020-06-18 12:00:00 23 7 Sudoeste 24 Sudoeste 0 -- -- 35
2020-06-18 11:00:00 21.5 9 Sur 19 Sudeste 0 -- -- 45
2020-06-18 10:00:00 19.2 11 Sur 20 Sudeste 0 -- -- 53
2020-06-18 09:00:00 16.6 13 Sudeste 21 Sudeste 0 -- -- 73
2020-06-18 08:00:00 14.9 10 Sudeste 18 Sur 0 -- -- 83
2020-06-18 07:00:00 13.3 10 Sur 15 Sudeste 0 -- -- 90
2020-06-18 06:00:00 13.8 6 Sur 18 Sudeste 0 -- -- 88
2020-06-18 05:00:00 14.5 10 Sudeste 21 Sudeste 0 -- -- 86
2020-06-18 04:00:00 15.1 13 Sudeste 25 Sudeste 0 -- -- 82
2020-06-18 03:00:00 15.7 12 Sudeste 23 Sudeste 0 -- -- 77
2020-06-18 02:00:00 17.1 6 Sudeste 18 Este 0 -- -- 43
2020-06-18 01:00:00 17.7 4 Sur 6 Sur 0 -- -- 39
2020-06-18 00:00:00 17.6 3 Sur 4 Sudeste 0 -- -- 39
2020-06-17 23:00:00 18.6 0 Calma 4 Oeste 0 -- -- 37
2020-06-17 22:00:00 20.7 0 Calma 12 Noroeste 0 -- -- 32
2020-06-17 21:00:00 23.6 6 Noroeste 20 Oeste 0 -- -- 29
2020-06-17 20:00:00 24.2 11 Oeste 31 Noroeste 0 -- -- 27
2020-06-17 19:00:00 25 7 Oeste 28 Noroeste 0 -- -- 27
2020-06-17 18:00:00 24.9 7 Sudoeste 30 Oeste 0 -- -- 28
2020-06-17 17:00:00 24.5 10 Noroeste 27 Oeste 0 -- -- 30
2020-06-17 16:00:00 24.1 13 Oeste 31 Oeste 0 -- -- 30
2020-06-17 15:00:00 23.6 10 Sudoeste 23 Sudoeste 0 -- -- 33
2020-06-17 14:00:00 22.1 9 Oeste 25 Sudoeste 0 -- -- 36
2020-06-17 13:00:00 21.1 8 Oeste 22 Sudoeste 0 -- -- 40
2020-06-17 12:00:00 20.5 9 Oeste 19 Nordeste 0 -- -- 45
2020-06-17 11:00:00 19.4 5 Oeste 11 Sudoeste 0 -- -- 54
2020-06-17 10:00:00 18 3 Nordeste 7 Norte 0 -- -- 64
2020-06-17 09:00:00 15.4 0 Calma 4 Sur 0 -- -- 72
2020-06-17 08:00:00 11.4 2 Norte 6 Norte 0 -- -- 84
2020-06-17 07:00:00 8.6 0 Calma 4 Sudeste 0 -- -- 89
2020-06-17 06:00:00 9.5 4 Sur 5 Sur 0 -- -- 87
2020-06-17 05:00:00 10.2 3 Norte 10 Nordeste 0 -- -- 84
2020-06-17 04:00:00 11.2 0 Calma 5 Sudoeste 0 -- -- 83
2020-06-17 03:00:00 11.3 2 Sur 4 Sudeste 0 -- -- 85
2020-06-17 02:00:00 12.3 0 Calma 6 Oeste 0 -- -- 81
2020-06-17 01:00:00 13.5 3 Oeste 8 Noroeste 0 -- -- 77
2020-06-17 00:00:00 14 3 Norte 9 Norte 0 -- -- 75
2020-06-16 23:00:00 14.6 7 Norte 33 Noroeste 0.4 -- -- 79
2020-06-16 22:00:00 15.6 6 Noroeste 21 Norte 0.4 -- -- 77
2020-06-16 21:00:00 16.3 6 Norte 42 Noroeste 0.6 -- -- 76
2020-06-16 20:00:00 22.3 19 Oeste 39 Oeste 0 -- -- 37
2020-06-16 19:00:00 24.3 18 Oeste 33 Noroeste 0 -- -- 31
2020-06-16 18:00:00 24.2 18 Noroeste 43 Noroeste 0 -- -- 30
2020-06-16 17:00:00 24.3 21 Oeste 44 Oeste 0 -- -- 29
2020-06-16 16:00:00 24.6 24 Noroeste 43 Noroeste 0 -- -- 31
2020-06-16 15:00:00 23.4 19 Noroeste 39 Oeste 0 -- -- 37
2020-06-16 14:00:00 23.2 16 Oeste 34 Noroeste 0 -- -- 38
2020-06-16 13:00:00 22.4 15 Noroeste 31 Oeste 0 -- -- 41
2020-06-16 12:00:00 21.3 13 Oeste 29 Oeste 0 -- -- 44
2020-06-16 11:00:00 20.9 9 Oeste 21 Sudoeste 0 -- -- 46
2020-06-16 10:00:00 18.7 5 Oeste 11 Oeste 0 -- -- 54
2020-06-16 09:00:00 16.2 7 Oeste 13 Noroeste 0 -- -- 60
2020-06-16 08:00:00 12.8 2 Nordeste 8 Nordeste 0 -- -- 73
2020-06-16 07:00:00 11.5 2 Nordeste 6 Oeste 0 -- -- 71
2020-06-16 06:00:00 12 3 Noroeste 10 Oeste 0 -- -- 65
2020-06-16 05:00:00 12 0 Calma 8 Oeste 0 -- -- 64
2020-06-16 04:00:00 13.7 0 Calma 8 Oeste 0 -- -- 59
2020-06-16 03:00:00 14.8 2 Noroeste 13 Nordeste 0 -- -- 57
2020-06-16 02:00:00 15.9 0 Calma 8 Oeste 0 -- -- 47
2020-06-16 01:00:00 16.8 3 Oeste 6 Sur 0 -- -- 44
2020-06-16 00:00:00 18.4 4 Sur 7 Sur 0 -- -- 39
2020-06-15 23:00:00 19.3 3 Oeste 13 Oeste 0 -- -- 35
2020-06-15 22:00:00 20.9 10 Oeste 23 Oeste 0 -- -- 30
2020-06-15 21:00:00 23.7 15 Oeste 30 Oeste 0 -- -- 28
2020-06-15 20:00:00 25.6 14 Oeste 34 Oeste 0 -- -- 26
2020-06-15 19:00:00 26.8 18 Oeste 35 Oeste 0 -- -- 24
2020-06-15 18:00:00 27.3 16 Oeste 32 Oeste 0 -- -- 23
2020-06-15 17:00:00 27 12 Oeste 31 Oeste 0 -- -- 24
2020-06-15 16:00:00 26.6 11 Oeste 28 Oeste 0 -- -- 25
2020-06-15 15:00:00 25.7 13 Oeste 30 Oeste 0 -- -- 26
2020-06-15 14:00:00 24.5 15 Oeste 28 Oeste 0 -- -- 27
2020-06-15 13:00:00 23.7 12 Sudoeste 27 Sudoeste 0 -- -- 32
2020-06-15 12:00:00 22.4 10 Sudoeste 24 Oeste 0 -- -- 36
2020-06-15 11:00:00 21.8 7 Oeste 19 Oeste 0 -- -- 40
2020-06-15 10:00:00 19.9 3 Sudoeste 10 Oeste 0 -- -- 44
2020-06-15 09:00:00 16.8 2 Sur 6 Sudeste 0 -- -- 52
2020-06-15 08:00:00 12.3 2 Sudoeste 6 Sudoeste 0 -- -- 61
2020-06-15 07:00:00 9 0 Calma 6 Oeste 0 -- -- 71
2020-06-15 06:00:00 10.2 3 Sur 5 Sudeste 0 -- -- 67
2020-06-15 05:00:00 10.9 0 Calma 3 Sudeste 0 -- -- 63
2020-06-15 04:00:00 11.7 0 Calma 4 Nordeste 0 -- -- 61
2020-06-15 03:00:00 13 0 Calma 6 Nordeste 0 -- -- 56
2020-06-15 02:00:00 15.3 0 Calma 6 Oeste 0 -- -- 50
2020-06-15 01:00:00 16.3 4 Noroeste 9 Oeste 0 -- -- 47
2020-06-15 00:00:00 17.6 5 Oeste 9 Oeste 0 -- -- 43
2020-06-14 23:00:00 18.4 3 Oeste 6 Oeste 0 -- -- 40
2020-06-14 22:00:00 19.7 3 Oeste 14 Oeste 0 -- -- 36
2020-06-14 21:00:00 22.6 12 Oeste 29 Oeste 0 -- -- 31
2020-06-14 20:00:00 24 14 Oeste 33 Oeste 0 -- -- 28
2020-06-14 19:00:00 24.9 13 Oeste 32 Oeste 0 -- -- 27
2020-06-14 18:00:00 25 14 Oeste 32 Noroeste 0 -- -- 28
2020-06-14 17:00:00 24.4 16 Oeste 35 Noroeste 0 -- -- 29
2020-06-14 16:00:00 23.6 14 Oeste 35 Noroeste 0 -- -- 29
2020-06-14 15:00:00 23.1 17 Oeste 39 Oeste 0 -- -- 33
2020-06-14 14:00:00 22.3 21 Oeste 38 Oeste 0 -- -- 33
2020-06-14 13:00:00 21.3 10 Oeste 31 Oeste 0 -- -- 38
2020-06-14 12:00:00 20.8 13 Oeste 30 Oeste 0 -- -- 38
2020-06-14 11:00:00 19.8 11 Oeste 24 Oeste 0 -- -- 41
2020-06-14 10:00:00 18.6 3 Oeste 10 Sudoeste 0 -- -- 46
2020-06-14 09:00:00 15.7 4 Sur 6 Sur 0 -- -- 52
2020-06-14 08:00:00 11.4 0 Calma 4 Norte 0 -- -- 65
2020-06-14 07:00:00 8.9 0 Calma 4 Sur 0 -- -- 69
2020-06-14 06:00:00 9.3 0 Calma 5 Sur 0 -- -- 68
2020-06-14 05:00:00 9.3 0 Calma 3 Sur 0 -- -- 66
2020-06-14 04:00:00 9.9 0 Calma 4 Sudeste 0 -- -- 63
2020-06-14 03:00:00 10.9 0 Calma 3 Sudoeste 0 -- -- 59
2020-06-14 02:00:00 12.8 0 Calma 5 Oeste 0 -- -- 54
2020-06-14 01:00:00 14 3 Oeste 6 Noroeste 0 -- -- 50
2020-06-14 00:00:00 15.2 3 Oeste 8 Oeste 0 -- -- 46
2020-06-13 23:00:00 15.9 5 Noroeste 8 Oeste 0 -- -- 42
2020-06-13 22:00:00 17.1 5 Oeste 17 Oeste 0 -- -- 39
2020-06-13 21:00:00 20.2 12 Oeste 30 Noroeste 0 -- -- 34
2020-06-13 20:00:00 21.4 10 Oeste 30 Oeste 0 -- -- 33
2020-06-13 19:00:00 22.1 12 Oeste 31 Oeste 0 -- -- 31
2020-06-13 18:00:00 21 10 Noroeste 30 Noroeste 0 -- -- 34
2020-06-13 17:00:00 21.6 12 Oeste 28 Noroeste 0 -- -- 33
2020-06-13 16:00:00 21.1 12 Oeste 31 Oeste 0 -- -- 35
2020-06-13 15:00:00 20.1 9 Oeste 26 Oeste 0 -- -- 40
2020-06-13 14:00:00 18.3 9 Oeste 25 Noroeste 0 -- -- 44
2020-06-13 13:00:00 17.5 12 Noroeste 27 Noroeste 0 -- -- 48
2020-06-13 12:00:00 16 11 Noroeste 31 Oeste 0 -- -- 56
2020-06-13 11:00:00 14.6 13 Noroeste 26 Noroeste 0 -- -- 63
2020-06-13 10:00:00 13 11 Oeste 26 Oeste 0 -- -- 77
2020-06-13 09:00:00 10.7 13 Oeste 25 Oeste 0 -- -- 84
2020-06-13 08:00:00 8.8 6 Oeste 14 Oeste 0 -- -- 91
2020-06-13 07:00:00 7.7 6 Oeste 18 Noroeste 0.2 -- -- 91
2020-06-13 06:00:00 8 10 Oeste 20 Oeste 0 -- -- 91
2020-06-13 05:00:00 8.5 9 Oeste 18 Oeste 0 -- -- 89
2020-06-13 04:00:00 9.3 7 Oeste 19 Oeste 0 -- -- 87
2020-06-13 03:00:00 9.4 7 Oeste 17 Oeste 0 -- -- 87
2020-06-13 02:00:00 10.1 5 Oeste 12 Oeste 0.2 -- -- 87
2020-06-13 01:00:00 9.9 4 Oeste 28 Noroeste 0 -- -- 84
2020-06-13 00:00:00 10.6 19 Noroeste 51 Oeste 0.6 -- -- 85
2020-06-12 23:00:00 14.9 8 Sudoeste 22 Oeste 0 -- -- 50
2020-06-12 22:00:00 15.8 14 Oeste 32 Sudoeste 0 -- -- 46
2020-06-12 21:00:00 16.6 18 Oeste 39 Sudoeste 0 -- -- 42
2020-06-12 20:00:00 17.4 14 Oeste 34 Noroeste 0 -- -- 40
2020-06-12 19:00:00 17.7 15 Oeste 37 Oeste 0 -- -- 41
2020-06-12 18:00:00 17.9 19 Oeste 44 Oeste 0 -- -- 40
2020-06-12 17:00:00 18.4 19 Oeste 41 Oeste 0 -- -- 39
2020-06-12 16:00:00 18.8 18 Oeste 40 Oeste 0 -- -- 38
2020-06-12 15:00:00 18.2 17 Oeste 37 Oeste 0 -- -- 39
2020-06-12 14:00:00 17.6 17 Oeste 37 Oeste 0 -- -- 40
2020-06-12 13:00:00 16.5 17 Oeste 38 Oeste 0 -- -- 44
2020-06-12 12:00:00 15.1 13 Oeste 32 Oeste 0 -- -- 47
2020-06-12 11:00:00 13.7 14 Sudoeste 30 Noroeste 0 -- -- 53
2020-06-12 10:00:00 12.9 13 Oeste 33 Oeste 0 -- -- 55
2020-06-12 09:00:00 11.2 13 Oeste 30 Noroeste 0 -- -- 59
2020-06-12 08:00:00 9.7 10 Oeste 30 Oeste 0 -- -- 65
2020-06-12 07:00:00 9 16 Oeste 33 Oeste 0 -- -- 67
2020-06-12 06:00:00 9.9 13 Oeste 30 Oeste 0 -- -- 68
2020-06-12 05:00:00 10.7 14 Oeste 35 Oeste 0 -- -- 68
2020-06-12 04:00:00 11.6 14 Oeste 44 Oeste 0 -- -- 65
2020-06-12 03:00:00 12.6 18 Oeste 35 Noroeste 0 -- -- 61
2020-06-12 02:00:00 13.8 15 Oeste 42 Sudoeste 0 -- -- 57
2020-06-12 01:00:00 14.5 18 Oeste 51 Noroeste 0 -- -- 56
2020-06-12 00:00:00 15.7 26 Oeste 48 Oeste 0 -- -- 59
2020-06-11 23:00:00 17.1 15 Oeste 49 Oeste 0 -- -- 52
2020-06-11 22:00:00 18.7 19 Oeste 44 Oeste 0 -- -- 43
2020-06-11 21:00:00 20.8 19 Oeste 47 Oeste 0 -- -- 39
2020-06-11 20:00:00 21.1 23 Oeste 45 Oeste 0 -- -- 39
2020-06-11 19:00:00 22.2 19 Oeste 46 Oeste 0 -- -- 37
2020-06-11 18:00:00 23 22 Oeste 50 Oeste 0 -- -- 36
2020-06-11 17:00:00 22.6 27 Oeste 49 Oeste 0 -- -- 37
2020-06-11 16:00:00 24.5 22 Oeste 45 Noroeste 0 -- -- 32
2020-06-11 15:00:00 24.1 26 Oeste 45 Noroeste 0 -- -- 31
2020-06-11 14:00:00 23.9 17 Oeste 41 Oeste 0 -- -- 27
2020-06-11 13:00:00 22.1 15 Sudoeste 42 Oeste 0 -- -- 32
2020-06-11 12:00:00 20.6 15 Sudoeste 36 Sudoeste 0 -- -- 38
2020-06-11 11:00:00 19.2 15 Sudoeste 36 Oeste 0 -- -- 40
2020-06-11 10:00:00 17.4 15 Sudoeste 35 Sudoeste 0 -- -- 48
2020-06-11 09:00:00 16.3 16 Sudoeste 29 Sudoeste 0 -- -- 50
2020-06-11 08:00:00 15.2 9 Sudoeste 26 Oeste 0 -- -- 61
2020-06-11 07:00:00 12.5 6 Oeste 28 Sudoeste 0 -- -- 66
2020-06-11 06:00:00 13.2 10 Noroeste 24 Noroeste 0 -- -- 59
2020-06-11 05:00:00 14.7 10 Oeste 28 Oeste 0 -- -- 51
2020-06-11 04:00:00 15.7 12 Oeste 29 Oeste 0 -- -- 38
2020-06-11 03:00:00 15.5 10 Oeste 18 Oeste 0 -- -- 42
2020-06-11 02:00:00 15.7 3 Sudoeste 10 Oeste 0 -- -- 43
2020-06-11 01:00:00 16.4 3 Sur 9 Sur 0 -- -- 43
2020-06-11 00:00:00 16.6 2 Sur 6 Sudeste 0 -- -- 45
2020-06-10 23:00:00 17.2 4 Sur 6 Sudeste 0 -- -- 44
2020-06-10 22:00:00 18.6 6 Este 10 Este 0 -- -- 41
2020-06-10 21:00:00 20.5 7 Este 12 Este 0 -- -- 37
2020-06-10 20:00:00 22.3 4 Noroeste 17 Oeste 0 -- -- 32
2020-06-10 19:00:00 22.7 10 Noroeste 27 Noroeste 0 -- -- 30
2020-06-10 18:00:00 23.3 10 Noroeste 29 Noroeste 0 -- -- 29
2020-06-10 17:00:00 23.9 17 Oeste 33 Noroeste 0 -- -- 27
2020-06-10 16:00:00 23.6 12 Oeste 31 Noroeste 0 -- -- 29
2020-06-10 15:00:00 22.5 12 Oeste 31 Oeste 0 -- -- 31
2020-06-10 14:00:00 21.6 12 Oeste 32 Noroeste 0 -- -- 34
2020-06-10 13:00:00 19.9 11 Norte 27 Noroeste 0 -- -- 37
2020-06-10 12:00:00 19.3 10 Noroeste 23 Oeste 0 -- -- 39
2020-06-10 11:00:00 17.9 5 Norte 13 Norte 0 -- -- 43
2020-06-10 10:00:00 15.5 6 Nordeste 12 Nordeste 0 -- -- 52
2020-06-10 09:00:00 12.2 9 Nordeste 15 Nordeste 0 -- -- 67
2020-06-10 08:00:00 9.6 8 Nordeste 13 Nordeste 0 -- -- 77
2020-06-10 07:00:00 7.1 5 Nordeste 8 Nordeste 0 -- -- 83
2020-06-10 06:00:00 7.4 6 Nordeste 12 Nordeste 0 -- -- 80
2020-06-10 05:00:00 7.9 7 Nordeste 12 Nordeste 0 -- -- 78
2020-06-10 04:00:00 8.6 8 Nordeste 17 Norte 0 -- -- 74
2020-06-10 03:00:00 10.3 11 Norte 21 Nordeste 0 -- -- 67
2020-06-10 02:00:00 11.6 10 Nordeste 22 Nordeste 0 -- -- 59
2020-06-10 01:00:00 11.8 12 Nordeste 23 Nordeste 0 -- -- 58
2020-06-10 00:00:00 11.7 9 Nordeste 16 Nordeste 0 -- -- 57
2020-06-09 23:00:00 12.4 7 Nordeste 11 Nordeste 0 -- -- 54
2020-06-09 22:00:00 15.5 5 Nordeste 10 Nordeste 0 -- -- 43
2020-06-09 21:00:00 19.6 7 Noroeste 22 Norte 0 -- -- 32
2020-06-09 20:00:00 20.4 7 Norte 22 Noroeste 0 -- -- 31
2020-06-09 19:00:00 21.5 11 Noroeste 26 Norte 0 -- -- 30
2020-06-09 18:00:00 21.5 12 Noroeste 27 Noroeste 0 -- -- 29
2020-06-09 17:00:00 20.6 9 Norte 31 Noroeste 0 -- -- 31
2020-06-09 16:00:00 20.3 10 Noroeste 37 Noroeste 0 -- -- 31
2020-06-09 15:00:00 20.3 15 Noroeste 31 Noroeste 0 -- -- 31
2020-06-09 14:00:00 19.4 13 Noroeste 31 Norte 0 -- -- 34
2020-06-09 13:00:00 18.1 15 Norte 35 Noroeste 0 -- -- 38
2020-06-09 12:00:00 17 13 Norte 26 Norte 0 -- -- 43
2020-06-09 11:00:00 15.1 11 Norte 26 Este 0 -- -- 47
2020-06-09 10:00:00 13 13 Norte 23 Norte 0 -- -- 57
2020-06-09 09:00:00 11.5 11 Nordeste 21 Nordeste 0 -- -- 63
2020-06-09 08:00:00 9.1 5 Nordeste 15 Nordeste 0 -- -- 75
2020-06-09 07:00:00 6.5 6 Nordeste 16 Norte 0 -- -- 84
2020-06-09 06:00:00 7 9 Nordeste 17 Norte 0 -- -- 81
2020-06-09 05:00:00 6.9 2 Este 9 Este 0 -- -- 83
2020-06-09 04:00:00 7.8 2 Sudeste 19 Nordeste 0 -- -- 81
2020-06-09 03:00:00 8.5 10 Nordeste 23 Norte 0 -- -- 82
2020-06-09 02:00:00 9.6 11 Nordeste 20 Nordeste 0 -- -- 78
2020-06-09 01:00:00 10.3 8 Nordeste 26 Nordeste 0 -- -- 75
2020-06-09 00:00:00 11.9 14 Nordeste 22 Norte 0 -- -- 65